createdAt,value
2022-11-24T00:01:15.840Z,69.40
2022-11-24T00:03:44.630Z,69.39
2022-11-24T00:06:16.112Z,69.48
2022-11-24T00:08:45.531Z,69.47
2022-11-24T00:11:15.419Z,69.32
2022-11-24T00:13:42.826Z,69.42
2022-11-24T00:16:24.751Z,69.46
2022-11-24T00:18:53.742Z,69.50
2022-11-24T00:21:21.634Z,69.46
2022-11-24T00:23:49.603Z,69.45
2022-11-24T00:26:19.595Z,69.47
2022-11-24T00:28:49.204Z,69.40
2022-11-24T00:31:19.563Z,69.38
2022-11-24T00:33:48.068Z,69.38
2022-11-24T00:36:16.729Z,69.33
2022-11-24T00:38:44.285Z,69.38
2022-11-24T00:41:11.565Z,69.29
2022-11-24T00:43:38.736Z,69.40
2022-11-24T00:46:06.466Z,69.34
2022-11-24T00:48:33.731Z,69.21
2022-11-24T00:51:03.878Z,69.37
2022-11-24T00:53:31.437Z,69.34
2022-11-24T00:55:58.637Z,69.31
2022-11-24T00:58:25.941Z,69.37
2022-11-24T01:00:53.792Z,69.33
2022-11-24T01:03:21.428Z,69.38
2022-11-24T01:05:49.059Z,69.39
2022-11-24T01:08:16.219Z,69.34
2022-11-24T01:10:43.411Z,69.20
2022-11-24T01:13:12.328Z,69.30
2022-11-24T01:15:39.634Z,69.21
2022-11-24T01:18:06.806Z,69.26
2022-11-24T01:20:33.906Z,69.31
2022-11-24T01:23:01.030Z,69.24
2022-11-24T01:25:28.310Z,69.21
2022-11-24T01:27:55.335Z,69.30
2022-11-24T01:30:23.354Z,69.34
2022-11-24T01:32:50.505Z,69.28
2022-11-24T01:35:17.680Z,69.24
2022-11-24T01:37:44.907Z,69.22
2022-11-24T01:40:12.313Z,69.26
2022-11-24T01:42:52.163Z,69.06
2022-11-24T01:45:41.283Z,69.14
2022-11-24T01:48:31.883Z,69.12
2022-11-24T01:51:13.238Z,69.19
2022-11-24T01:53:44.176Z,69.18
2022-11-24T01:56:13.119Z,69.19
2022-11-24T01:58:42.087Z,69.20
2022-11-24T02:01:09.853Z,69.23
2022-11-24T02:03:42.430Z,69.22
2022-11-24T02:06:14.394Z,69.27
2022-11-24T02:08:49.276Z,69.31
2022-11-24T02:11:16.399Z,69.26
2022-11-24T02:13:45.831Z,69.24
2022-11-24T02:16:13.018Z,69.26
2022-11-24T02:18:42.280Z,69.18
2022-11-24T02:21:12.171Z,69.13
2022-11-24T02:23:56.806Z,69.19
2022-11-24T02:26:41.952Z,69.26
2022-11-24T02:29:10.716Z,69.15
2022-11-24T02:31:40.299Z,69.12
2022-11-24T02:34:07.475Z,69.25
2022-11-24T02:36:34.601Z,69.24
2022-11-24T02:39:01.804Z,69.16
2022-11-24T02:41:29.340Z,69.11
2022-11-24T02:44:00.147Z,69.15
2022-11-24T02:46:27.589Z,69.06
2022-11-24T02:48:54.835Z,69.13
2022-11-24T02:51:22.392Z,69.19
2022-11-24T02:53:49.530Z,69.21
2022-11-24T02:56:16.694Z,69.22
2022-11-24T02:58:43.793Z,69.19
2022-11-24T03:01:11.009Z,69.21
2022-11-24T03:03:38.658Z,69.10
2022-11-24T03:06:05.914Z,69.09
2022-11-24T03:08:33.011Z,69.09
2022-11-24T03:11:02.080Z,69.07
2022-11-24T03:13:29.668Z,69.10
2022-11-24T03:15:56.791Z,69.14
2022-11-24T03:18:23.892Z,69.21
2022-11-24T03:20:51.015Z,69.31
2022-11-24T03:23:18.115Z,69.25
2022-11-24T03:25:45.189Z,69.29
2022-11-24T03:28:12.341Z,69.19
2022-11-24T03:30:39.517Z,69.16
2022-11-24T03:33:07.438Z,69.11
2022-11-24T03:35:34.536Z,69.10
2022-11-24T03:38:01.684Z,68.93
2022-11-24T03:40:29.323Z,69.05
2022-11-24T03:42:56.497Z,69.14
2022-11-24T03:45:44.977Z,69.17
2022-11-24T03:48:10.792Z,69.18
2022-11-24T03:50:37.904Z,69.14
2022-11-24T03:53:05.094Z,69.26
2022-11-24T03:55:32.245Z,69.29
2022-11-24T03:57:59.395Z,69.21
2022-11-24T04:00:27.085Z,69.22
2022-11-24T04:02:54.497Z,69.38
2022-11-24T04:05:21.769Z,69.26
2022-11-24T04:07:49.096Z,69.25
2022-11-24T04:10:16.325Z,69.30
2022-11-24T04:12:46.079Z,69.26
2022-11-24T04:15:16.211Z,69.10
2022-11-24T04:17:45.028Z,69.11
2022-11-24T04:20:12.967Z,69.09
2022-11-24T04:22:40.453Z,69.01
2022-11-24T04:25:08.638Z,69.06
2022-11-24T04:27:36.929Z,69.10
2022-11-24T04:30:06.665Z,69.07
2022-11-24T04:32:33.763Z,69.11
2022-11-24T04:35:00.786Z,69.04
2022-11-24T04:37:28.318Z,69.13
2022-11-24T04:39:55.549Z,69.19
2022-11-24T04:42:22.748Z,69.37
2022-11-24T04:44:49.873Z,69.08
2022-11-24T04:47:24.446Z,68.98
2022-11-24T04:49:52.416Z,69.05
2022-11-24T04:52:21.962Z,69.06
2022-11-24T04:54:49.560Z,69.04
2022-11-24T04:57:22.266Z,69.00
2022-11-24T04:59:51.157Z,69.03
2022-11-24T05:02:18.539Z,69.08
2022-11-24T05:04:46.205Z,69.04
2022-11-24T05:07:19.303Z,69.14
2022-11-24T05:10:08.272Z,69.01
2022-11-24T05:12:35.473Z,69.03
2022-11-24T05:15:04.620Z,69.08
2022-11-24T05:17:34.254Z,69.10
2022-11-24T05:20:01.457Z,69.00
2022-11-24T05:22:29.788Z,69.10
2022-11-24T05:24:56.909Z,69.03
2022-11-24T05:27:24.699Z,69.05
2022-11-24T05:29:51.873Z,69.08
2022-11-24T05:32:18.953Z,69.06
2022-11-24T05:34:46.046Z,69.12
2022-11-24T05:37:13.147Z,69.10
2022-11-24T05:39:40.272Z,69.03
2022-11-24T05:42:26.494Z,69.13
2022-11-24T05:44:54.081Z,68.97
2022-11-24T05:47:21.898Z,69.08
2022-11-24T05:49:49.000Z,69.11
2022-11-24T05:52:16.867Z,69.08
2022-11-24T05:54:43.911Z,69.17
2022-11-24T05:57:10.954Z,69.08
2022-11-24T05:59:37.903Z,69.06
2022-11-24T06:02:05.069Z,68.94
2022-11-24T06:04:32.617Z,69.00
2022-11-24T06:07:00.172Z,69.03
2022-11-24T06:09:27.302Z,68.97
2022-11-24T06:11:54.548Z,68.92
2022-11-24T06:14:21.881Z,69.02
2022-11-24T06:16:48.953Z,69.02
2022-11-24T06:19:16.004Z,69.04
2022-11-24T06:21:43.072Z,68.99
2022-11-24T06:24:10.076Z,69.06
2022-11-24T06:26:36.991Z,69.14
2022-11-24T06:29:04.040Z,69.10
2022-11-24T06:31:31.151Z,69.02
2022-11-24T06:33:59.312Z,68.94
2022-11-24T06:36:27.056Z,68.95
2022-11-24T06:38:54.280Z,68.87
2022-11-24T06:41:21.353Z,68.93
2022-11-24T06:43:48.504Z,68.97
2022-11-24T06:46:15.629Z,68.89
2022-11-24T06:48:42.729Z,69.03
2022-11-24T06:51:13.131Z,69.05
2022-11-24T06:53:41.306Z,69.06
2022-11-24T06:56:16.550Z,69.08
2022-11-24T06:58:47.612Z,69.02
2022-11-24T07:01:19.114Z,69.07
2022-11-24T07:03:48.315Z,69.03
2022-11-24T07:06:16.385Z,68.88
2022-11-24T07:08:44.203Z,68.95
2022-11-24T07:11:15.631Z,68.97
2022-11-24T07:13:43.558Z,68.90
2022-11-24T07:16:19.999Z,68.80
2022-11-24T07:18:48.780Z,68.92
2022-11-24T07:21:16.444Z,68.85
2022-11-24T07:23:43.899Z,68.66
2022-11-24T07:26:11.331Z,68.74
2022-11-24T07:28:38.404Z,68.87
2022-11-24T07:31:10.240Z,68.83
2022-11-24T07:33:38.237Z,68.93
2022-11-24T07:36:06.961Z,68.80
2022-11-24T07:38:34.868Z,68.78
2022-11-24T07:41:07.996Z,68.74
2022-11-24T07:43:36.897Z,68.81
2022-11-24T07:46:05.983Z,68.85
2022-11-24T07:48:33.912Z,68.84
2022-11-24T07:51:05.139Z,68.93
2022-11-24T07:53:33.462Z,68.95
2022-11-24T07:56:02.456Z,68.88
2022-11-24T07:58:32.866Z,69.04
2022-11-24T08:01:01.167Z,69.05
2022-11-24T08:03:28.426Z,69.02
2022-11-24T08:08:47.598Z,69.05
2022-11-24T08:11:17.445Z,69.04
2022-11-24T08:13:44.979Z,69.12
2022-11-24T08:16:15.232Z,68.96
2022-11-24T08:18:43.062Z,68.96
2022-11-24T08:21:13.539Z,68.95
2022-11-24T08:23:42.001Z,68.87
2022-11-24T08:26:16.160Z,68.91
2022-11-24T08:28:44.213Z,68.87
2022-11-24T08:31:17.288Z,68.95
2022-11-24T08:33:45.010Z,68.96
2022-11-24T08:36:15.361Z,68.93
2022-11-24T08:38:43.130Z,68.98
2022-11-24T08:41:16.766Z,68.97
2022-11-24T08:43:44.083Z,68.99
2022-11-24T08:46:13.980Z,68.96
2022-11-24T08:48:41.775Z,68.96
2022-11-24T08:51:11.731Z,69.06
2022-11-24T08:53:39.266Z,69.08
2022-11-24T08:56:07.823Z,69.04
2022-11-24T08:58:35.707Z,68.89
2022-11-24T09:01:12.149Z,68.78
2022-11-24T09:03:42.278Z,68.55
2022-11-24T09:06:13.961Z,68.77
2022-11-24T09:08:41.573Z,68.48
2022-11-24T09:11:11.207Z,68.53
2022-11-24T09:13:39.381Z,68.47
2022-11-24T09:16:11.375Z,68.63
2022-11-24T09:18:38.904Z,68.77
2022-11-24T09:21:09.569Z,68.85
2022-11-24T09:23:38.532Z,68.97
2022-11-24T09:26:06.372Z,68.85
2022-11-24T09:28:33.498Z,68.97
2022-11-24T09:31:02.381Z,69.04
2022-11-24T09:33:30.179Z,68.99
2022-11-24T09:35:57.356Z,69.12
2022-11-24T09:38:24.763Z,69.06
2022-11-24T09:40:56.820Z,69.03
2022-11-24T09:43:36.573Z,68.89
2022-11-24T09:46:11.928Z,68.78
2022-11-24T09:48:42.886Z,68.93
2022-11-24T09:51:12.825Z,68.91
2022-11-24T09:53:45.451Z,68.93
2022-11-24T09:56:26.297Z,68.92
2022-11-24T09:59:03.304Z,68.98
2022-11-24T10:01:40.628Z,69.03
2022-11-24T10:04:42.400Z,68.98
2022-11-24T10:07:28.014Z,68.90
2022-11-24T10:10:06.633Z,69.02
2022-11-24T10:12:43.567Z,68.92
2022-11-24T10:15:41.599Z,68.89
2022-11-24T10:18:33.775Z,68.84
2022-11-24T10:21:15.442Z,68.84
2022-11-24T10:24:04.432Z,68.69
2022-11-24T10:26:39.518Z,68.91
2022-11-24T10:29:12.837Z,68.89
2022-11-24T10:31:43.064Z,68.94
2022-11-24T10:34:33.530Z,69.01
2022-11-24T10:37:14.045Z,68.94
2022-11-24T10:40:01.276Z,68.95
2022-11-24T10:42:33.766Z,68.88
2022-11-24T10:45:11.158Z,69.01
2022-11-24T10:47:40.465Z,69.04
2022-11-24T10:50:27.998Z,68.87
2022-11-24T10:53:11.649Z,68.97
2022-11-24T10:55:59.970Z,68.93
2022-11-24T10:58:38.598Z,68.78
2022-11-24T11:01:15.455Z,68.64
2022-11-24T11:03:47.758Z,68.84
2022-11-24T11:06:20.962Z,68.95
2022-11-24T11:08:48.022Z,68.95
2022-11-24T11:11:18.153Z,68.58
2022-11-24T11:14:02.904Z,68.56
2022-11-24T11:16:46.245Z,68.73
2022-11-24T11:19:53.153Z,68.86
2022-11-24T11:22:27.214Z,68.92
2022-11-24T11:25:14.926Z,68.98
2022-11-24T11:27:42.798Z,69.03
2022-11-24T11:35:50.475Z,68.71
2022-11-24T11:38:17.962Z,68.60
2022-11-24T11:40:48.822Z,68.76
2022-11-24T11:43:26.903Z,68.68
2022-11-24T11:46:03.975Z,68.85
2022-11-24T11:48:42.771Z,68.91
2022-11-24T11:51:26.141Z,68.92
2022-11-24T11:54:21.271Z,68.94
2022-11-24T11:56:56.564Z,68.95
2022-11-24T12:00:11.765Z,68.94
2022-11-24T12:03:25.184Z,68.95
2022-11-24T12:06:01.646Z,68.98
2022-11-24T12:09:11.557Z,68.87
2022-11-24T12:11:53.419Z,68.85
2022-11-24T12:14:41.587Z,68.93
2022-11-24T12:17:37.562Z,68.89
2022-11-24T12:20:14.929Z,68.84
2022-11-24T12:22:59.849Z,68.91
2022-11-24T12:25:38.338Z,68.74
2022-11-24T12:28:20.131Z,68.84
2022-11-24T12:30:56.629Z,68.86
2022-11-24T12:33:39.114Z,68.89
2022-11-24T12:36:28.226Z,68.95
2022-11-24T12:39:00.342Z,68.82
2022-11-24T12:41:43.455Z,68.85
2022-11-24T12:44:39.854Z,68.91
2022-11-24T12:47:27.100Z,68.93
2022-11-24T12:50:10.486Z,68.89
2022-11-24T12:53:24.356Z,68.84
2022-11-24T12:55:52.425Z,68.88
2022-11-24T12:58:22.317Z,68.90
2022-11-24T13:00:55.355Z,68.81
2022-11-24T13:03:36.354Z,68.81
2022-11-24T13:06:14.613Z,68.70
2022-11-24T13:08:41.872Z,68.73
2022-11-24T13:11:21.101Z,68.81
2022-11-24T13:14:06.227Z,68.82
2022-11-24T13:16:38.672Z,68.84
2022-11-24T13:19:23.435Z,68.88
2022-11-24T13:22:01.546Z,68.72
2022-11-24T13:24:32.087Z,68.87
2022-11-24T13:27:19.811Z,68.91
2022-11-24T13:29:53.131Z,68.89
2022-11-24T13:32:21.251Z,68.83
2022-11-24T13:34:55.517Z,68.79
2022-11-24T13:37:27.320Z,68.85
2022-11-24T13:40:12.209Z,68.82
2022-11-24T13:42:54.856Z,68.82
2022-11-24T13:45:41.086Z,68.79
2022-11-24T13:48:21.489Z,68.88
2022-11-24T13:50:56.219Z,68.90
2022-11-24T13:53:35.994Z,68.85
2022-11-24T13:56:03.049Z,68.83
2022-11-24T13:58:36.439Z,68.88
2022-11-24T14:01:06.250Z,68.88
2022-11-24T14:03:36.879Z,68.89
2022-11-24T14:06:04.849Z,68.87
2022-11-24T14:08:36.455Z,68.78
2022-11-24T14:11:11.413Z,68.73
2022-11-24T14:13:38.513Z,68.73
2022-11-24T14:16:15.191Z,68.73
2022-11-24T14:18:45.031Z,68.76
2022-11-24T14:21:35.958Z,68.79
2022-11-24T14:24:08.946Z,68.88
2022-11-24T14:26:39.580Z,68.83
2022-11-24T14:29:15.640Z,68.92
2022-11-24T14:31:53.643Z,68.83
2022-11-24T14:34:22.380Z,68.85
2022-11-24T14:36:51.142Z,68.88
2022-11-24T14:39:23.091Z,69.00
2022-11-24T14:42:08.025Z,68.93
2022-11-24T14:44:41.012Z,68.90
2022-11-24T14:47:30.932Z,68.97
2022-11-24T14:50:07.845Z,68.84
2022-11-24T14:52:35.716Z,68.83
2022-11-24T14:55:21.721Z,68.76
2022-11-24T14:57:49.372Z,68.72
2022-11-24T15:00:20.695Z,68.77
2022-11-24T15:02:55.041Z,68.84
2022-11-24T15:05:25.035Z,68.87
2022-11-24T15:08:02.475Z,68.85
2022-11-24T15:10:36.389Z,68.92
2022-11-24T15:13:13.926Z,68.90
2022-11-24T15:15:48.549Z,68.84
2022-11-24T15:18:27.661Z,68.75
2022-11-24T15:20:54.991Z,68.55
2022-11-24T15:23:35.375Z,68.75
2022-11-24T15:26:02.423Z,68.62
2022-11-24T15:28:31.025Z,68.51
2022-11-24T15:31:04.940Z,68.70
2022-11-24T15:33:33.016Z,68.76
2022-11-24T15:36:00.551Z,68.72
2022-11-24T15:38:27.615Z,68.82
2022-11-24T15:40:57.973Z,68.82
2022-11-24T15:43:34.647Z,68.80
2022-11-24T15:46:03.208Z,68.80
2022-11-24T15:48:30.329Z,68.81
2022-11-24T15:50:58.839Z,68.93
2022-11-24T15:53:32.730Z,68.93
2022-11-24T15:56:01.561Z,68.84
2022-11-24T15:58:28.609Z,68.80
2022-11-24T16:00:55.827Z,68.85
2022-11-24T16:06:17.916Z,68.63
2022-11-24T16:08:49.289Z,68.60
2022-11-24T16:11:16.340Z,68.65
2022-11-24T16:13:46.979Z,68.67
2022-11-24T16:16:17.695Z,68.73
2022-11-24T16:18:45.511Z,68.72
2022-11-24T16:21:12.645Z,68.69
2022-11-24T16:23:39.769Z,68.68
2022-11-24T16:26:07.280Z,68.86
2022-11-24T16:28:34.635Z,68.86
2022-11-24T16:31:01.990Z,68.81
2022-11-24T16:33:30.242Z,68.91
2022-11-24T16:35:57.546Z,68.83
2022-11-24T16:38:24.567Z,68.83
2022-11-24T16:40:52.846Z,68.79
2022-11-24T16:43:20.284Z,68.75
2022-11-24T16:46:00.836Z,68.87
2022-11-24T16:48:27.966Z,68.81
2022-11-24T16:50:55.040Z,68.77
2022-11-24T16:53:22.040Z,68.77
2022-11-24T16:55:57.892Z,68.74
2022-11-24T16:58:25.273Z,68.85
2022-11-24T17:00:52.442Z,68.70
2022-11-24T17:03:19.701Z,68.77
2022-11-24T17:06:00.804Z,68.77
2022-11-24T17:08:32.006Z,68.72
2022-11-24T17:11:13.897Z,68.84
2022-11-24T17:13:42.149Z,68.66
2022-11-24T17:16:13.591Z,68.56
2022-11-24T17:18:41.339Z,68.73
2022-11-24T17:21:12.636Z,68.82
2022-11-24T17:23:40.121Z,68.78
2022-11-24T17:26:11.058Z,68.86
2022-11-24T17:28:38.493Z,68.84
2022-11-24T17:31:07.052Z,68.83
2022-11-24T17:33:34.429Z,68.87
2022-11-24T17:36:03.423Z,68.98
2022-11-24T17:38:34.465Z,68.95
2022-11-24T17:41:01.642Z,68.90
2022-11-24T17:43:29.203Z,68.90
2022-11-24T17:45:58.269Z,68.80
2022-11-24T17:48:25.884Z,68.81
2022-11-24T17:51:08.035Z,68.67
2022-11-24T17:53:39.274Z,68.62
2022-11-24T17:56:08.404Z,68.62
2022-11-24T17:58:41.244Z,68.77
2022-11-24T18:01:11.039Z,68.85
2022-11-24T18:03:42.058Z,68.81
2022-11-24T18:06:11.804Z,68.87
2022-11-24T18:08:41.492Z,68.89
2022-11-24T18:11:11.583Z,68.85
2022-11-24T18:13:59.891Z,68.90
2022-11-24T18:16:28.372Z,68.92
2022-11-24T18:19:07.931Z,68.94
2022-11-24T18:21:37.972Z,68.83
2022-11-24T18:24:05.149Z,68.83
2022-11-24T18:26:32.324Z,68.80
2022-11-24T18:28:59.914Z,68.81
2022-11-24T18:31:27.201Z,68.83
2022-11-24T18:33:54.337Z,68.80
2022-11-24T18:36:27.054Z,68.65
2022-11-24T18:38:57.702Z,68.67
2022-11-24T18:41:24.775Z,68.78
2022-11-24T18:43:51.798Z,68.77
2022-11-24T18:46:19.247Z,68.79
2022-11-24T18:48:46.406Z,68.86
2022-11-24T18:51:14.812Z,68.79
2022-11-24T18:53:43.883Z,68.88
2022-11-24T18:56:16.463Z,68.85
2022-11-24T18:58:44.255Z,68.79
2022-11-24T19:01:12.728Z,68.79
2022-11-24T19:03:48.020Z,68.77
2022-11-24T19:06:32.734Z,68.74
2022-11-24T19:09:09.189Z,68.77
2022-11-24T19:11:38.405Z,68.69
2022-11-24T19:14:07.500Z,68.68
2022-11-24T19:16:35.138Z,68.75
2022-11-24T19:19:03.233Z,68.69
2022-11-24T19:21:32.670Z,68.56
2022-11-24T19:24:04.988Z,68.74
2022-11-24T19:26:35.411Z,68.67
2022-11-24T19:29:03.207Z,68.71
2022-11-24T19:31:30.363Z,68.79
2022-11-24T19:33:58.814Z,68.76
2022-11-24T19:36:26.428Z,68.82
2022-11-24T19:38:55.575Z,68.80
2022-11-24T19:41:25.432Z,68.68
2022-11-24T19:43:55.554Z,68.74
2022-11-24T19:46:27.775Z,68.58
2022-11-24T19:48:57.345Z,68.56
2022-11-24T19:51:30.849Z,68.54
2022-11-24T19:53:58.799Z,68.59
2022-11-24T19:56:28.047Z,68.72
2022-11-24T19:58:56.096Z,68.73
2022-11-24T20:01:33.718Z,68.76
2022-11-24T20:04:04.328Z,68.72
2022-11-24T20:06:34.544Z,68.72
2022-11-24T20:09:01.775Z,68.70
2022-11-24T20:11:29.718Z,68.71
2022-11-24T20:13:57.977Z,68.76
2022-11-24T20:16:30.063Z,68.81
2022-11-24T20:19:01.893Z,68.79
2022-11-24T20:21:32.762Z,68.83
2022-11-24T20:24:24.777Z,68.74
2022-11-24T20:26:58.285Z,68.75
2022-11-24T20:29:25.722Z,68.78
2022-11-24T20:31:54.651Z,68.63
2022-11-24T20:34:22.741Z,68.66
2022-11-24T20:36:49.942Z,68.72
2022-11-24T20:39:25.335Z,68.83
2022-11-24T20:41:53.379Z,68.80
2022-11-24T20:44:22.233Z,68.88
2022-11-24T20:46:49.755Z,68.86
2022-11-24T20:49:19.951Z,68.78
2022-11-24T20:51:47.924Z,68.72
2022-11-24T20:54:17.685Z,68.70
2022-11-24T20:56:46.614Z,68.76
2022-11-24T20:59:16.648Z,68.88
2022-11-24T21:01:46.650Z,68.80
2022-11-24T21:04:19.878Z,68.73
2022-11-24T21:06:47.622Z,68.75
2022-11-24T21:09:14.742Z,68.70
2022-11-24T21:11:42.151Z,68.73
2022-11-24T21:14:09.940Z,68.75
2022-11-24T21:16:39.238Z,68.69
2022-11-24T21:19:10.129Z,68.83
2022-11-24T21:21:38.070Z,68.94
2022-11-24T21:24:13.569Z,68.90
2022-11-24T21:26:41.796Z,68.92
2022-11-24T21:29:11.609Z,68.86
2022-11-24T21:31:39.348Z,68.84
2022-11-24T21:34:08.167Z,68.87
2022-11-24T21:36:36.363Z,68.93
2022-11-24T21:39:04.496Z,68.75
2022-11-24T21:41:33.636Z,68.67
2022-11-24T21:44:01.303Z,68.71
2022-11-24T21:46:30.186Z,68.70
2022-11-24T21:48:57.285Z,68.78
2022-11-24T21:51:24.335Z,68.82
2022-11-24T21:53:51.536Z,68.88
2022-11-24T21:56:20.533Z,68.81
2022-11-24T21:58:53.286Z,68.83
2022-11-24T22:01:23.620Z,68.88
2022-11-24T22:03:51.248Z,68.91
2022-11-24T22:06:19.398Z,68.91
2022-11-24T22:08:47.853Z,68.92
2022-11-24T22:11:17.873Z,68.85
2022-11-24T22:13:45.816Z,68.72
2022-11-24T22:16:18.134Z,68.78
2022-11-24T22:18:46.286Z,68.76
2022-11-24T22:21:20.809Z,68.74
2022-11-24T22:23:51.033Z,68.69
2022-11-24T22:26:20.693Z,68.65
2022-11-24T22:28:48.092Z,68.75
2022-11-24T22:31:20.986Z,68.74
2022-11-24T22:33:49.131Z,68.73
2022-11-24T22:36:18.893Z,68.62
2022-11-24T22:38:45.994Z,68.72
2022-11-24T22:41:17.906Z,68.84
2022-11-24T22:43:46.368Z,68.82
2022-11-24T22:46:16.109Z,68.81
2022-11-24T22:48:43.773Z,68.88
2022-11-24T22:51:13.573Z,68.91
2022-11-24T22:53:41.364Z,68.86
2022-11-24T22:56:11.484Z,68.80
2022-11-24T22:58:39.584Z,68.81
2022-11-24T23:01:15.206Z,68.85
2022-11-24T23:03:42.647Z,68.82
2022-11-24T23:06:21.820Z,68.83
2022-11-24T23:08:49.662Z,68.68
2022-11-24T23:11:25.875Z,68.73
2022-11-24T23:13:58.326Z,68.79
2022-11-24T23:16:25.312Z,68.88
2022-11-24T23:18:54.108Z,68.93
2022-11-24T23:21:27.125Z,68.90
2022-11-24T23:23:55.021Z,68.84
2022-11-24T23:26:24.908Z,68.94
2022-11-24T23:28:52.263Z,68.84
2022-11-24T23:31:22.404Z,68.80
2022-11-24T23:33:49.636Z,68.88
2022-11-24T23:36:19.169Z,68.81
2022-11-24T23:38:47.266Z,68.89
2022-11-24T23:41:18.050Z,68.82
2022-11-24T23:43:45.379Z,68.89
2022-11-24T23:46:17.998Z,68.89
2022-11-24T23:48:45.063Z,68.87
2022-11-24T23:51:14.616Z,68.87
2022-11-24T23:53:42.789Z,68.89
2022-11-24T23:56:12.704Z,69.01
2022-11-24T23:58:39.958Z,68.89
